createdAt,value
2023-04-03T00:11:43.801Z,65.26
2023-04-03T00:19:19.691Z,64.06
2023-04-03T00:26:57.511Z,63.10
2023-04-03T00:30:48.118Z,62.99
2023-04-03T00:34:36.226Z,62.89
2023-04-03T00:38:25.404Z,62.80
2023-04-03T00:42:14.602Z,62.72
2023-04-03T00:46:12.462Z,62.21
2023-04-03T00:50:01.667Z,62.28
2023-04-03T00:53:50.795Z,62.34
2023-04-03T00:57:28.998Z,62.22
2023-04-03T01:01:18.350Z,62.05
2023-04-03T01:05:13.137Z,61.75
2023-04-03T01:09:02.349Z,61.66
2023-04-03T01:12:54.264Z,61.69
2023-04-03T01:16:42.052Z,61.77
2023-04-03T01:20:30.095Z,61.71
2023-04-03T01:24:24.743Z,61.98
2023-04-03T01:28:13.947Z,62.00
2023-04-03T01:43:52.983Z,61.00
2023-04-03T01:47:40.825Z,58.89
2023-04-03T01:51:29.879Z,59.06
2023-04-03T01:55:11.893Z,62.75
2023-04-03T01:59:01.004Z,65.21
2023-04-03T02:02:50.245Z,65.85
2023-04-03T02:06:39.391Z,65.78
2023-04-03T02:10:28.570Z,65.62
2023-04-03T02:14:17.831Z,65.31
2023-04-03T02:18:07.770Z,65.09
2023-04-03T02:21:56.374Z,64.99
2023-04-03T02:25:45.774Z,64.80
2023-04-03T02:29:34.822Z,64.80
2023-04-03T02:33:23.900Z,64.81
2023-04-03T02:37:13.006Z,64.82
2023-04-03T02:40:54.678Z,64.83
2023-04-03T02:44:43.768Z,64.77
2023-04-03T02:48:32.709Z,64.91
2023-04-03T02:52:21.802Z,64.76
2023-04-03T02:56:03.840Z,64.70
2023-04-03T02:59:45.966Z,64.64
2023-04-03T03:03:24.887Z,64.78
2023-04-03T03:07:13.981Z,64.77
2023-04-03T03:10:46.951Z,64.92
2023-04-03T03:14:35.818Z,64.77
2023-04-03T03:18:24.986Z,64.88
2023-04-03T03:22:11.513Z,64.92
2023-04-03T03:25:53.993Z,64.97
2023-04-03T03:29:43.127Z,65.18
2023-04-03T03:33:32.244Z,65.20
2023-04-03T03:37:21.518Z,65.17
2023-04-03T03:41:10.889Z,65.09
2023-04-03T03:44:59.995Z,65.19
2023-04-03T03:48:49.084Z,65.35
2023-04-03T03:52:37.386Z,65.39
2023-04-03T03:56:26.509Z,65.50
2023-04-03T04:00:05.696Z,65.49
2023-04-03T04:03:55.208Z,65.59
2023-04-03T04:07:44.405Z,65.65
2023-04-03T04:11:32.377Z,65.72
2023-04-03T04:15:14.470Z,65.75
2023-04-03T04:19:03.657Z,65.95
2023-04-03T04:22:53.040Z,65.99
2023-04-03T04:26:42.302Z,66.05
2023-04-03T04:30:25.020Z,66.10
2023-04-03T04:34:14.291Z,66.21
2023-04-03T04:38:03.464Z,66.15
2023-04-03T04:41:52.633Z,66.30
2023-04-03T04:45:41.735Z,66.30
2023-04-03T04:49:30.875Z,66.38
2023-04-03T04:53:20.001Z,66.55
2023-04-03T04:57:01.963Z,66.65
2023-04-03T05:00:51.623Z,66.63
2023-04-03T05:04:40.797Z,66.73
2023-04-03T05:08:29.959Z,66.73
2023-04-03T05:12:19.032Z,66.73
2023-04-03T05:16:08.432Z,66.59
2023-04-03T05:19:57.989Z,66.75
2023-04-03T05:23:22.586Z,66.73
2023-04-03T05:26:32.238Z,66.67
2023-04-03T05:29:54.367Z,66.69
2023-04-03T05:33:43.618Z,66.68
2023-04-03T05:37:06.796Z,66.68
2023-04-03T05:40:49.116Z,66.57
2023-04-03T05:44:20.674Z,66.50
2023-04-03T05:47:51.720Z,66.53
2023-04-03T05:51:17.241Z,66.50
2023-04-03T05:55:07.725Z,66.43
2023-04-03T05:58:39.737Z,66.39
2023-04-03T06:01:48.415Z,66.22
2023-04-03T06:05:12.711Z,66.13
2023-04-03T06:08:35.514Z,66.21
2023-04-03T06:12:24.726Z,66.21
2023-04-03T06:16:12.668Z,66.32
2023-04-03T06:19:55.717Z,66.50
2023-04-03T06:23:38.607Z,66.73
2023-04-03T06:27:20.400Z,66.53
2023-04-03T06:30:50.030Z,66.57
2023-04-03T06:34:30.507Z,65.95
2023-04-03T06:38:10.957Z,65.27
2023-04-03T06:41:44.622Z,65.24
2023-04-03T06:44:56.357Z,64.82
2023-04-03T06:48:22.098Z,65.07
2023-04-03T06:52:09.106Z,64.70
2023-04-03T06:55:33.900Z,64.14
2023-04-03T06:59:07.002Z,64.11
2023-04-03T07:02:30.281Z,63.26
2023-04-03T07:05:55.057Z,62.95
2023-04-03T07:09:24.525Z,62.73
2023-04-03T07:13:00.980Z,62.27
2023-04-03T07:16:38.745Z,61.85
2023-04-03T07:20:20.243Z,61.47
2023-04-03T07:23:40.013Z,62.23
2023-04-03T07:27:04.202Z,62.49
2023-04-03T07:30:04.524Z,61.25
2023-04-03T07:33:13.961Z,60.81
2023-04-03T07:36:46.068Z,58.30
2023-04-03T07:40:09.398Z,56.92
2023-04-03T07:43:53.242Z,58.46
2023-04-03T07:47:33.584Z,59.41
2023-04-03T07:50:34.875Z,59.48
2023-04-03T07:54:04.807Z,61.85
2023-04-03T07:57:53.635Z,61.80
2023-04-03T08:01:00.528Z,60.89
2023-04-03T08:04:16.470Z,58.70
2023-04-03T08:07:27.790Z,57.70
2023-04-03T08:10:52.905Z,56.62
2023-04-03T08:14:35.235Z,56.44
2023-04-03T08:17:34.837Z,56.25
2023-04-03T08:20:46.620Z,56.58
2023-04-03T08:23:40.893Z,56.92
2023-04-03T08:26:59.046Z,58.08
2023-04-03T08:30:29.263Z,58.69
2023-04-03T08:33:59.181Z,57.24
2023-04-03T08:36:55.208Z,56.88
2023-04-03T08:40:17.449Z,56.06
2023-04-03T08:43:31.508Z,55.67
2023-04-03T08:46:44.108Z,56.35
2023-04-03T08:49:53.220Z,54.06
2023-04-03T08:53:14.382Z,52.34
2023-04-03T08:56:11.309Z,52.82
2023-04-03T08:59:22.485Z,52.73
2023-04-03T09:02:46.360Z,51.27
2023-04-03T09:05:44.430Z,50.41
2023-04-03T09:08:59.505Z,50.57
2023-04-03T09:12:14.266Z,48.93
2023-04-03T09:15:42.490Z,48.72
2023-04-03T09:18:41.953Z,49.06
2023-04-03T09:21:44.427Z,49.93
2023-04-03T09:25:10.081Z,47.96
2023-04-03T09:27:59.522Z,48.23
2023-04-03T09:31:20.054Z,47.80
2023-04-03T09:34:28.908Z,47.47
2023-04-03T09:38:00.192Z,49.02
2023-04-03T09:41:03.876Z,48.47
2023-04-03T09:44:02.502Z,47.35
2023-04-03T09:47:12.102Z,46.92
2023-04-03T09:50:57.816Z,47.29
2023-04-03T09:53:54.967Z,48.22
2023-04-03T09:56:51.110Z,47.89
2023-04-03T09:59:36.263Z,47.43
2023-04-03T10:03:03.985Z,45.98
2023-04-03T10:06:11.015Z,46.86
2023-04-03T10:09:05.714Z,46.15
2023-04-03T10:12:15.634Z,46.62
2023-04-03T10:15:21.038Z,46.26
2023-04-03T10:18:34.323Z,45.78
2023-04-03T10:21:46.741Z,45.23
2023-04-03T10:25:17.580Z,45.73
2023-04-03T10:28:22.613Z,44.91
2023-04-03T10:31:16.750Z,44.57
2023-04-03T10:34:30.845Z,44.89
2023-04-03T10:37:50.831Z,44.58
2023-04-03T10:40:35.448Z,44.98
2023-04-03T10:43:49.352Z,43.38
2023-04-03T10:46:37.990Z,43.07
2023-04-03T10:49:57.206Z,43.98
2023-04-03T10:52:57.172Z,45.44
2023-04-03T10:56:16.545Z,45.70
2023-04-03T10:59:25.796Z,43.78
2023-04-03T11:02:52.591Z,43.58
2023-04-03T11:05:56.638Z,42.83
2023-04-03T11:09:06.839Z,44.31
2023-04-03T11:12:12.448Z,43.76
2023-04-03T11:15:34.284Z,43.48
2023-04-03T11:18:46.107Z,42.60
2023-04-03T11:21:32.469Z,40.71
2023-04-03T11:24:50.520Z,40.01
2023-04-03T11:27:53.094Z,40.02
2023-04-03T11:31:05.546Z,38.53
2023-04-03T11:34:50.098Z,39.33
2023-04-03T11:37:56.633Z,40.31
2023-04-03T11:40:47.342Z,39.97
2023-04-03T11:43:38.249Z,39.57
2023-04-03T11:46:59.498Z,38.99
2023-04-03T11:50:22.303Z,37.42
2023-04-03T11:53:02.050Z,36.95
2023-04-03T11:55:49.371Z,36.83
2023-04-03T11:58:58.198Z,38.57
2023-04-03T12:02:05.700Z,38.94
2023-04-03T12:05:14.614Z,38.40
2023-04-03T12:08:25.362Z,37.87
2023-04-03T12:11:29.804Z,36.62
2023-04-03T12:14:18.460Z,37.47
2023-04-03T12:17:18.985Z,37.02
2023-04-03T12:20:33.442Z,36.74
2023-04-03T12:23:46.978Z,35.96
2023-04-03T12:26:38.421Z,34.90
2023-04-03T12:29:43.910Z,35.79
2023-04-03T12:32:50.582Z,35.49
2023-04-03T12:35:35.239Z,35.82
2023-04-03T12:38:47.076Z,34.91
2023-04-03T12:41:59.082Z,34.49
2023-04-03T12:44:54.282Z,35.55
2023-04-03T12:47:37.438Z,36.52
2023-04-03T12:50:45.612Z,35.77
2023-04-03T12:53:44.104Z,35.03
2023-04-03T12:56:56.928Z,34.50
2023-04-03T12:59:54.348Z,36.34
2023-04-03T13:02:52.430Z,36.32
2023-04-03T13:05:52.465Z,35.72
2023-04-03T13:08:51.564Z,35.47
2023-04-03T13:11:34.185Z,35.19
2023-04-03T13:14:31.762Z,35.74
2023-04-03T13:17:10.838Z,36.09
2023-04-03T13:19:49.297Z,35.96
2023-04-03T13:22:28.884Z,36.13
2023-04-03T13:25:15.315Z,35.92
2023-04-03T13:28:00.384Z,35.60
2023-04-03T13:30:42.224Z,35.32
2023-04-03T13:33:41.280Z,35.45
2023-04-03T13:36:31.977Z,36.13
2023-04-03T13:39:17.320Z,36.62
2023-04-03T13:42:00.167Z,36.39
2023-04-03T13:44:39.394Z,35.90
2023-04-03T13:47:25.717Z,34.88
2023-04-03T13:50:22.220Z,33.51
2023-04-03T13:53:11.492Z,33.40
2023-04-03T13:56:17.588Z,34.47
2023-04-03T13:59:17.425Z,34.62
2023-04-03T14:02:27.559Z,35.48
2023-04-03T14:05:19.464Z,35.64
2023-04-03T14:08:42.228Z,37.25
2023-04-03T14:11:41.092Z,36.88
2023-04-03T14:14:40.189Z,37.07
2023-04-03T14:17:55.720Z,37.97
2023-04-03T14:20:58.351Z,37.74
2023-04-03T14:23:59.907Z,38.00
2023-04-03T14:27:07.913Z,39.55
2023-04-03T14:30:22.366Z,39.54
2023-04-03T14:33:41.953Z,40.12
2023-04-03T14:37:03.727Z,41.16
2023-04-03T14:40:41.890Z,40.94
2023-04-03T14:43:48.353Z,41.76
2023-04-03T14:47:02.264Z,41.61
2023-04-03T14:50:20.239Z,41.72
2023-04-03T14:53:38.692Z,41.55
2023-04-03T14:56:46.696Z,41.32
2023-04-03T15:00:05.616Z,41.45
2023-04-03T15:03:46.498Z,40.50
2023-04-03T15:07:06.316Z,40.62
2023-04-03T15:10:44.431Z,41.18
2023-04-03T15:13:48.441Z,41.77
2023-04-03T15:16:53.782Z,42.07
2023-04-03T15:20:01.187Z,42.51
2023-04-03T15:23:27.614Z,42.54
2023-04-03T15:27:00.606Z,42.57
2023-04-03T15:30:16.422Z,42.32
2023-04-03T15:33:51.700Z,42.39
2023-04-03T15:37:26.060Z,42.66
2023-04-03T15:40:52.925Z,43.28
2023-04-03T15:44:21.083Z,43.37
2023-04-03T15:47:50.335Z,43.50
2023-04-03T15:51:30.102Z,43.35
2023-04-03T15:55:01.286Z,43.48
2023-04-03T15:58:50.388Z,44.08
2023-04-03T16:02:29.185Z,45.11
2023-04-03T16:05:49.066Z,44.84
2023-04-03T16:09:31.180Z,45.28
2023-04-03T16:13:07.956Z,45.27
2023-04-03T16:16:49.961Z,46.39
2023-04-03T16:20:07.584Z,45.96
2023-04-03T16:23:55.582Z,46.71
2023-04-03T16:27:27.798Z,47.17
2023-04-03T16:30:57.911Z,47.14
2023-04-03T16:34:37.569Z,47.77
2023-04-03T16:38:25.308Z,47.89
2023-04-03T16:42:05.450Z,47.97
2023-04-03T16:45:54.472Z,48.48
2023-04-03T16:49:43.747Z,48.54
2023-04-03T16:53:21.737Z,48.65
2023-04-03T16:57:10.861Z,48.75
2023-04-03T17:01:00.142Z,49.91
2023-04-03T17:04:42.269Z,50.16
2023-04-03T17:08:24.149Z,50.56
2023-04-03T17:12:12.423Z,50.61
2023-04-03T17:16:01.534Z,50.82
2023-04-03T17:19:50.749Z,50.90
2023-04-03T17:23:22.522Z,50.58
2023-04-03T17:26:50.255Z,50.25
2023-04-03T17:30:39.335Z,49.95
2023-04-03T17:34:28.517Z,50.14
2023-04-03T17:38:07.828Z,49.83
2023-04-03T17:41:57.437Z,50.46
2023-04-03T17:45:46.859Z,50.49
2023-04-03T17:49:18.935Z,50.35
2023-04-03T17:53:08.071Z,50.36
2023-04-03T17:56:57.176Z,50.31
2023-04-03T18:00:46.609Z,50.53
2023-04-03T18:04:23.049Z,50.97
2023-04-03T18:08:05.383Z,51.33
2023-04-03T18:11:54.557Z,51.44
2023-04-03T18:15:43.826Z,51.05
2023-04-03T18:19:33.061Z,51.37
2023-04-03T18:23:13.781Z,51.76
2023-04-03T18:27:01.640Z,52.19
2023-04-03T18:30:39.929Z,51.71
2023-04-03T18:34:29.297Z,51.94
2023-04-03T18:38:08.946Z,51.83
2023-04-03T18:41:56.854Z,52.07
2023-04-03T18:45:38.595Z,52.09
2023-04-03T18:49:21.013Z,51.95
2023-04-03T18:53:03.432Z,52.20
2023-04-03T18:56:51.350Z,51.99
2023-04-03T19:00:35.397Z,52.36
2023-04-03T19:04:24.480Z,52.39
2023-04-03T19:08:13.583Z,51.97
2023-04-03T19:11:55.028Z,52.05
2023-04-03T19:15:43.889Z,52.03
2023-04-03T19:19:12.808Z,52.04
2023-04-03T19:23:01.962Z,51.94
2023-04-03T19:27:00.242Z,51.76
2023-04-03T19:30:49.614Z,51.83
2023-04-03T19:34:31.776Z,51.87
2023-04-03T19:38:20.991Z,51.71
2023-04-03T19:42:06.891Z,52.37
2023-04-03T19:45:56.297Z,50.55
2023-04-03T19:49:39.185Z,50.80
2023-04-03T19:53:26.323Z,50.72
2023-04-03T19:57:15.551Z,51.60
2023-04-03T20:00:46.828Z,52.14
2023-04-03T20:04:29.593Z,52.66
2023-04-03T20:08:18.788Z,53.13
2023-04-03T20:12:07.478Z,53.41
2023-04-03T20:15:56.862Z,53.58
2023-04-03T20:19:21.874Z,53.83
2023-04-03T20:23:10.011Z,54.20
2023-04-03T20:26:59.481Z,54.19
2023-04-03T20:30:49.680Z,54.35
2023-04-03T20:34:38.464Z,54.29
2023-04-03T20:38:21.362Z,54.47
2023-04-03T20:49:46.728Z,54.80
2023-04-03T20:57:15.069Z,54.64
2023-04-03T21:16:05.553Z,55.86
2023-04-03T21:27:26.361Z,57.40
2023-04-03T21:31:13.248Z,57.41
2023-04-03T21:57:58.680Z,59.59
2023-04-03T22:01:50.228Z,60.07
2023-04-03T22:05:37.377Z,58.68
2023-04-03T22:09:26.020Z,58.45
2023-04-03T22:13:02.293Z,58.29
2023-04-03T22:16:31.951Z,59.08
2023-04-03T22:20:19.842Z,58.80
2023-04-03T22:23:59.078Z,58.60
2023-04-03T22:27:36.574Z,58.94
2023-04-03T22:31:08.544Z,58.53
2023-04-03T22:34:37.636Z,57.77
2023-04-03T22:38:26.667Z,58.22
2023-04-03T22:42:14.982Z,57.83
2023-04-03T22:45:58.499Z,58.02
2023-04-03T22:49:47.254Z,57.97
2023-04-03T22:53:28.669Z,58.61
2023-04-03T22:57:17.821Z,58.40
2023-04-03T23:01:07.568Z,58.80
2023-04-03T23:04:48.877Z,58.62
2023-04-03T23:08:37.235Z,58.84
2023-04-03T23:12:26.508Z,59.10
2023-04-03T23:16:01.151Z,59.20
2023-04-03T23:19:41.704Z,58.79
2023-04-03T23:23:32.163Z,59.36
2023-04-03T23:27:22.606Z,59.41
2023-04-03T23:30:58.361Z,59.43
2023-04-03T23:34:47.736Z,59.68
2023-04-03T23:38:35.782Z,59.98
2023-04-03T23:42:12.153Z,59.85
2023-04-03T23:45:36.749Z,60.09
2023-04-03T23:49:26.044Z,60.40
2023-04-03T23:53:15.190Z,60.49
2023-04-03T23:57:04.377Z,60.21
